Ballymahon, Ireland
Current Conditions -  °F | °C
As of 7:00 PM on Saturday 22 Nov 2014 (Local Time) from EIKN Reporting Station
Few Clouds Few Clouds  
Wind Chill: 33°   Ceiling: Unl
Heat Index: 37°   Visibility: 6mi
Dew Point: 36°   Wind: 6mph
Humidity: 93%   Direction: 240°WSW
Pressure: 29.94"   Gusts: NA
Location:  53.56°N, 7.77°W
Report Text: EIKN 221900Z 24005KT 9999 FEW020CB 03/02 Q1014 NOSIG
Loading
Personal Weather Stations






























Interactive Weather Map New forecast layout! Learn more

10-Day Weather Forecast

Advertisements
Track Severe Weather on mobile